createdAt,value
2023-03-05T00:00:55.298Z,5.08
2023-03-05T00:03:21.917Z,5.17
2023-03-05T00:05:48.612Z,5.21
2023-03-05T00:08:15.156Z,5.01
2023-03-05T00:10:41.723Z,5.00
2023-03-05T00:13:08.317Z,4.93
2023-03-05T00:15:41.303Z,4.82
2023-03-05T00:18:07.872Z,4.81
2023-03-05T00:20:36.090Z,4.77
2023-03-05T00:23:02.703Z,4.72
2023-03-05T00:25:29.284Z,4.60
2023-03-05T00:27:55.850Z,4.66
2023-03-05T00:30:22.430Z,4.60
2023-03-05T00:32:48.945Z,4.78
2023-03-05T00:35:15.593Z,4.54
2023-03-05T00:37:42.235Z,4.71
2023-03-05T00:40:09.952Z,4.66
2023-03-05T00:42:38.696Z,4.84
2023-03-05T00:45:07.731Z,4.60
2023-03-05T00:47:34.744Z,4.48
2023-03-05T00:50:02.379Z,4.38
2023-03-05T00:52:34.799Z,4.35
2023-03-05T00:55:01.367Z,4.43
2023-03-05T00:57:28.010Z,4.31
2023-03-05T00:59:54.623Z,4.29
2023-03-05T01:02:21.284Z,4.52
2023-03-05T01:04:47.909Z,4.44
2023-03-05T01:07:14.629Z,4.46
2023-03-05T01:09:41.170Z,4.43
2023-03-05T01:12:08.154Z,4.48
2023-03-05T01:14:35.945Z,4.27
2023-03-05T01:17:02.706Z,4.18
2023-03-05T01:19:29.301Z,4.43
2023-03-05T01:21:56.108Z,4.30
2023-03-05T01:24:22.934Z,4.39
2023-03-05T01:26:49.752Z,4.50
2023-03-05T01:29:16.359Z,4.47
2023-03-05T01:31:43.291Z,4.36
2023-03-05T01:34:10.076Z,4.41
2023-03-05T01:36:36.684Z,4.37
2023-03-05T01:39:03.832Z,4.33
2023-03-05T01:41:30.413Z,4.23
2023-03-05T01:43:57.054Z,4.36
2023-03-05T01:46:38.184Z,4.37
2023-03-05T01:49:15.421Z,4.34
2023-03-05T01:52:04.248Z,4.26
2023-03-05T01:54:38.313Z,4.33
2023-03-05T01:57:09.606Z,4.21
2023-03-05T01:59:39.347Z,4.28
2023-03-05T02:02:08.053Z,4.10
2023-03-05T02:04:43.252Z,4.03
2023-03-05T02:07:11.194Z,4.03
2023-03-05T02:09:39.907Z,4.02
2023-03-05T02:12:08.337Z,4.02
2023-03-05T02:14:35.819Z,4.08
2023-03-05T02:17:02.511Z,3.89
2023-03-05T02:19:29.142Z,3.89
2023-03-05T02:21:55.682Z,3.84
2023-03-05T02:24:37.252Z,3.83
2023-03-05T02:27:05.173Z,3.87
2023-03-05T02:29:34.150Z,3.88
2023-03-05T02:32:01.646Z,3.72
2023-03-05T02:34:28.306Z,3.56
2023-03-05T02:36:55.628Z,3.58
2023-03-05T02:39:22.504Z,3.57
2023-03-05T02:41:49.129Z,3.51
2023-03-05T02:44:15.809Z,3.42
2023-03-05T02:46:42.392Z,3.46
2023-03-05T02:49:08.977Z,3.52
2023-03-05T02:51:35.539Z,3.52
2023-03-05T02:54:02.114Z,3.61
2023-03-05T02:56:28.716Z,3.42
2023-03-05T02:58:55.379Z,3.28
2023-03-05T03:01:21.965Z,3.36
2023-03-05T03:03:48.862Z,3.47
2023-03-05T03:06:15.525Z,3.49
2023-03-05T03:08:42.051Z,3.59
2023-03-05T03:11:10.821Z,3.28
2023-03-05T03:13:37.617Z,3.23
2023-03-05T03:16:07.112Z,3.08
2023-03-05T03:18:33.970Z,2.92
2023-03-05T03:21:01.069Z,3.04
2023-03-05T03:23:28.370Z,3.22
2023-03-05T03:25:54.913Z,2.97
2023-03-05T03:28:21.733Z,2.96
2023-03-05T03:30:48.311Z,2.97
2023-03-05T03:33:14.976Z,2.82
2023-03-05T03:35:41.616Z,2.79
2023-03-05T03:38:08.231Z,3.01
2023-03-05T03:40:35.913Z,3.08
2023-03-05T03:43:02.527Z,2.84
2023-03-05T03:45:29.179Z,2.81
2023-03-05T03:47:55.803Z,2.87
2023-03-05T03:50:24.937Z,2.74
2023-03-05T03:52:52.098Z,2.80
2023-03-05T03:55:18.820Z,2.76
2023-03-05T03:57:45.436Z,2.73
2023-03-05T04:00:12.773Z,2.92
2023-03-05T04:02:39.461Z,3.02
2023-03-05T04:05:06.554Z,2.97
2023-03-05T04:07:33.098Z,3.05
2023-03-05T04:09:59.653Z,2.96
2023-03-05T04:12:26.215Z,3.00
2023-03-05T04:14:52.848Z,2.84
2023-03-05T04:20:10.974Z,2.73
2023-03-05T04:22:37.870Z,2.67
2023-03-05T04:25:06.630Z,2.88
2023-03-05T04:27:43.257Z,2.79
2023-03-05T04:30:14.639Z,2.69
2023-03-05T04:32:41.729Z,2.61
2023-03-05T04:35:09.056Z,2.75
2023-03-05T05:01:26.164Z,2.75
2023-03-05T05:03:52.845Z,3.04
2023-03-05T05:06:19.427Z,3.08
2023-03-05T05:08:46.004Z,3.07
2023-03-05T05:11:14.733Z,2.97
2023-03-05T05:13:41.293Z,2.98
2023-03-05T05:16:09.422Z,2.66
2023-03-05T05:18:36.112Z,2.57
2023-03-05T05:21:06.666Z,2.71
2023-03-05T05:23:33.279Z,2.51
2023-03-05T05:26:01.682Z,2.49
2023-03-05T05:28:29.052Z,2.65
2023-03-05T05:30:55.728Z,2.47
2023-03-05T05:33:23.066Z,2.58
2023-03-05T05:35:50.809Z,2.57
2023-03-05T05:38:18.821Z,2.63
2023-03-05T05:40:45.503Z,2.60
2023-03-05T05:43:12.226Z,2.80
2023-03-05T05:45:39.106Z,2.87
2023-03-05T05:48:06.086Z,2.93
2023-03-05T05:50:32.691Z,3.04
2023-03-05T05:53:00.326Z,3.11
2023-03-05T05:55:26.865Z,3.17
2023-03-05T05:57:53.412Z,3.24
2023-03-05T06:00:20.304Z,3.36
2023-03-05T06:02:47.203Z,3.61
2023-03-05T06:05:14.936Z,3.64
2023-03-05T06:07:41.961Z,3.60
2023-03-05T06:10:09.976Z,3.83
2023-03-05T06:12:36.645Z,3.84
2023-03-05T06:15:03.494Z,3.86
2023-03-05T06:17:31.074Z,3.89
2023-03-05T06:19:58.499Z,3.96
2023-03-05T06:22:25.335Z,4.10
2023-03-05T06:24:52.004Z,4.09
2023-03-05T06:27:18.662Z,4.33
2023-03-05T06:29:45.267Z,4.55
2023-03-05T06:32:12.274Z,4.51
2023-03-05T06:34:38.900Z,4.87
2023-03-05T06:37:05.604Z,4.96
2023-03-05T06:39:32.157Z,5.30
2023-03-05T06:41:58.719Z,4.97
2023-03-05T06:44:25.854Z,5.09
2023-03-05T06:46:52.703Z,5.67
2023-03-05T06:49:19.281Z,5.74
2023-03-05T06:51:45.931Z,5.91
2023-03-05T06:54:15.519Z,6.37
2023-03-05T06:56:44.504Z,5.93
2023-03-05T06:59:13.081Z,6.27
2023-03-05T07:01:39.723Z,6.46
2023-03-05T07:04:06.900Z,6.62
2023-03-05T07:06:35.481Z,6.27
2023-03-05T07:09:03.342Z,6.50
2023-03-05T07:11:31.189Z,6.50
2023-03-05T07:13:58.235Z,6.36
2023-03-05T07:16:30.979Z,7.08
2023-03-05T07:18:59.265Z,6.86
2023-03-05T07:21:31.712Z,6.76
2023-03-05T07:24:00.394Z,6.30
2023-03-05T07:26:28.258Z,6.77
2023-03-05T07:28:55.308Z,6.57
2023-03-05T07:31:27.307Z,6.19
2023-03-05T07:33:54.242Z,6.15
2023-03-05T07:36:20.890Z,6.45
2023-03-05T07:38:47.533Z,6.23
2023-03-05T07:41:20.106Z,6.54
2023-03-05T07:43:48.642Z,6.61
2023-03-05T07:46:17.745Z,7.05
2023-03-05T07:48:44.573Z,7.09
2023-03-05T07:51:15.868Z,7.06
2023-03-05T07:53:47.142Z,7.03
2023-03-05T07:56:14.629Z,7.63
2023-03-05T07:58:41.264Z,7.09
2023-03-05T08:01:15.239Z,7.04
2023-03-05T08:03:43.064Z,6.85
2023-03-05T08:06:11.186Z,6.80
2023-03-05T08:08:38.388Z,6.97
2023-03-05T08:11:06.721Z,6.64
2023-03-05T08:13:33.348Z,7.62
2023-03-05T08:16:03.853Z,7.36
2023-03-05T08:18:30.488Z,7.71
2023-03-05T08:20:57.048Z,7.05
2023-03-05T08:23:23.727Z,7.50
2023-03-05T08:25:53.594Z,7.89
2023-03-05T08:28:20.551Z,7.96
2023-03-05T08:30:51.239Z,7.93
2023-03-05T08:33:17.971Z,7.92
2023-03-05T08:35:44.755Z,8.23
2023-03-05T08:38:11.464Z,8.21
2023-03-05T08:40:38.096Z,7.79
2023-03-05T08:43:05.856Z,7.99
2023-03-05T08:45:32.492Z,8.60
2023-03-05T08:47:59.158Z,9.21
2023-03-05T08:50:26.082Z,9.07
2023-03-05T08:52:52.652Z,8.86
2023-03-05T08:55:19.253Z,9.03
2023-03-05T08:57:46.844Z,8.88
2023-03-05T09:00:13.960Z,8.51
2023-03-05T09:02:40.604Z,8.67
2023-03-05T09:05:07.815Z,8.90
2023-03-05T09:07:34.361Z,9.26
2023-03-05T09:10:01.105Z,9.07
2023-03-05T09:12:27.792Z,9.13
2023-03-05T09:14:55.747Z,8.72
2023-03-05T09:17:23.038Z,8.80
2023-03-05T09:19:50.194Z,8.82
2023-03-05T09:22:16.733Z,9.07
2023-03-05T09:24:44.182Z,9.60
2023-03-05T09:27:10.798Z,8.85
2023-03-05T09:29:38.010Z,9.28
2023-03-05T09:32:05.213Z,8.94
2023-03-05T09:34:32.148Z,8.67
2023-03-05T09:36:58.796Z,9.46
2023-03-05T09:39:25.459Z,9.29
2023-03-05T09:42:09.835Z,9.22
2023-03-05T09:45:04.435Z,9.27
2023-03-05T09:48:12.068Z,9.62
2023-03-05T09:50:51.199Z,9.00
2023-03-05T09:53:23.531Z,9.04
2023-03-05T09:55:56.447Z,9.75
2023-03-05T09:58:43.810Z,9.37
2023-03-05T10:01:18.816Z,9.38
2023-03-05T10:03:51.558Z,9.11
2023-03-05T10:06:30.207Z,9.46
2023-03-05T10:09:04.232Z,9.02
2023-03-05T10:11:36.705Z,9.27
2023-03-05T10:14:04.550Z,10.05
2023-03-05T10:16:46.155Z,9.86
2023-03-05T10:19:34.691Z,9.28
2023-03-05T10:22:23.609Z,9.13
2023-03-05T10:25:03.077Z,9.59
2023-03-05T10:27:32.628Z,9.98
2023-03-05T10:30:06.316Z,9.42
2023-03-05T10:32:54.274Z,10.05
2023-03-05T10:35:58.665Z,10.32
2023-03-05T10:38:25.460Z,9.76
2023-03-05T10:40:55.521Z,9.32
2023-03-05T10:43:23.297Z,9.36
2023-03-05T10:45:54.541Z,9.86
2023-03-05T10:48:53.445Z,9.57
2023-03-05T10:51:29.280Z,9.76
2023-03-05T10:54:05.000Z,9.52
2023-03-05T10:56:31.972Z,9.66
2023-03-05T10:58:58.605Z,9.96
2023-03-05T11:01:28.771Z,10.69
2023-03-05T11:03:57.282Z,10.40
2023-03-05T11:06:38.172Z,10.98
2023-03-05T11:09:24.644Z,10.49
2023-03-05T11:12:00.410Z,10.64
2023-03-05T11:14:33.171Z,10.38
2023-03-05T11:17:01.416Z,10.83
2023-03-05T11:19:37.692Z,10.50
2023-03-05T11:22:14.308Z,11.57
2023-03-05T11:24:41.838Z,11.29
2023-03-05T11:27:32.598Z,10.23
2023-03-05T11:29:59.664Z,10.70
2023-03-05T11:32:29.032Z,11.34
2023-03-05T11:34:57.486Z,10.78
2023-03-05T11:37:31.928Z,10.30
2023-03-05T11:40:10.689Z,10.95
2023-03-05T11:42:40.814Z,11.10
2023-03-05T11:45:16.567Z,10.69
2023-03-05T11:47:48.592Z,10.94
2023-03-05T11:50:28.220Z,10.34
2023-03-05T11:53:17.932Z,10.89
2023-03-05T11:55:48.725Z,10.54
2023-03-05T11:58:34.113Z,11.18
2023-03-05T12:01:01.657Z,11.20
2023-03-05T12:03:37.495Z,11.48
2023-03-05T12:06:37.610Z,11.69
2023-03-05T12:09:29.240Z,10.51
2023-03-05T12:12:18.285Z,11.54
2023-03-05T12:14:52.287Z,12.15
2023-03-05T12:17:40.084Z,12.48
2023-03-05T12:20:10.976Z,11.53
2023-03-05T12:22:39.993Z,11.38
2023-03-05T12:25:25.371Z,11.22
2023-03-05T12:27:51.958Z,10.98
2023-03-05T12:30:33.775Z,10.49
2023-03-05T12:33:02.247Z,10.85
2023-03-05T12:35:37.181Z,11.17
2023-03-05T12:38:30.058Z,11.13
2023-03-05T12:41:28.055Z,11.65
2023-03-05T12:44:08.865Z,11.45
2023-03-05T12:47:23.417Z,10.76
2023-03-05T12:49:50.213Z,12.06
2023-03-05T12:52:24.767Z,11.91
2023-03-05T12:55:20.370Z,12.58
2023-03-05T12:57:57.440Z,11.98
2023-03-05T13:00:33.847Z,10.63
2023-03-05T13:03:04.286Z,11.00
2023-03-05T13:05:37.070Z,10.84
2023-03-05T13:08:12.885Z,11.06
2023-03-05T13:10:41.041Z,11.11
2023-03-05T13:13:14.863Z,11.62
2023-03-05T13:15:46.569Z,12.00
2023-03-05T13:18:24.880Z,11.35
2023-03-05T13:21:05.666Z,11.98
2023-03-05T13:23:34.183Z,11.26
2023-03-05T13:26:15.237Z,10.92
2023-03-05T13:28:47.318Z,10.86
2023-03-05T13:31:21.358Z,10.76
2023-03-05T13:33:54.301Z,11.70
2023-03-05T13:36:23.113Z,10.86
2023-03-05T13:38:53.376Z,10.89
2023-03-05T13:41:21.927Z,10.59
2023-03-05T13:44:01.066Z,10.52
2023-03-05T13:46:34.286Z,10.43
2023-03-05T13:49:23.455Z,10.72
2023-03-05T13:51:57.940Z,11.01
2023-03-05T13:54:27.267Z,10.57
2023-03-05T13:57:04.371Z,10.91
2023-03-05T13:59:36.591Z,10.73
2023-03-05T14:02:20.093Z,10.53
2023-03-05T14:04:47.654Z,10.82
2023-03-05T14:07:20.354Z,10.64
2023-03-05T14:09:56.692Z,10.11
2023-03-05T14:12:40.755Z,10.39
2023-03-05T14:15:29.422Z,10.39
2023-03-05T14:18:15.709Z,10.41
2023-03-05T14:21:12.563Z,10.18
2023-03-05T14:23:44.454Z,10.03
2023-03-05T14:26:28.818Z,10.14
2023-03-05T14:29:24.335Z,10.38
2023-03-05T14:32:02.193Z,10.16
2023-03-05T14:34:32.355Z,9.86
2023-03-05T14:37:21.879Z,10.40
2023-03-05T14:39:54.964Z,10.48
2023-03-05T14:42:26.993Z,10.78
2023-03-05T14:44:55.813Z,10.51
2023-03-05T14:47:24.336Z,10.78
2023-03-05T14:49:51.079Z,10.62
2023-03-05T14:52:23.946Z,10.15
2023-03-05T14:54:52.166Z,10.37
2023-03-05T14:57:25.203Z,10.17
2023-03-05T14:59:52.048Z,10.20
2023-03-05T15:02:21.864Z,10.40
2023-03-05T15:04:48.943Z,10.50
2023-03-05T15:07:45.415Z,10.81
2023-03-05T15:10:20.460Z,10.58
2023-03-05T15:12:47.666Z,10.37
2023-03-05T15:15:15.231Z,10.18
2023-03-05T15:17:47.356Z,10.24
2023-03-05T15:20:26.288Z,10.43
2023-03-05T15:22:56.005Z,10.38
2023-03-05T15:25:24.399Z,10.58
2023-03-05T15:27:51.145Z,10.35
2023-03-05T15:30:32.666Z,10.23
2023-03-05T15:33:03.659Z,10.50
2023-03-05T15:35:30.240Z,10.20
2023-03-05T15:37:58.016Z,10.33
2023-03-05T15:40:27.758Z,10.08
2023-03-05T15:42:59.220Z,10.08
2023-03-05T15:45:26.317Z,10.20
2023-03-05T15:47:54.562Z,10.32
2023-03-05T15:50:21.885Z,10.03
2023-03-05T15:52:49.237Z,10.18
2023-03-05T15:55:19.639Z,10.17
2023-03-05T15:57:48.983Z,10.27
2023-03-05T16:00:20.608Z,10.48
2023-03-05T16:02:48.117Z,10.23
2023-03-05T16:05:14.689Z,10.53
2023-03-05T16:07:49.190Z,10.83
2023-03-05T16:10:21.692Z,11.01
2023-03-05T16:12:52.218Z,10.72
2023-03-05T16:15:21.329Z,10.91
2023-03-05T16:17:53.112Z,10.56
2023-03-05T16:20:20.383Z,10.75
2023-03-05T16:22:47.201Z,10.89
2023-03-05T16:25:13.857Z,10.55
2023-03-05T16:27:43.130Z,10.47
2023-03-05T16:30:10.496Z,10.83
2023-03-05T16:32:38.985Z,11.00
2023-03-05T16:35:06.394Z,11.01
2023-03-05T16:37:33.142Z,10.99
2023-03-05T16:39:59.832Z,11.03
2023-03-05T16:42:26.811Z,10.89
2023-03-05T16:44:54.263Z,11.08
2023-03-05T16:47:20.932Z,10.91
2023-03-05T16:49:47.508Z,10.86
2023-03-05T16:52:19.128Z,10.80
2023-03-05T16:54:47.010Z,10.75
2023-03-05T16:57:14.238Z,10.75
2023-03-05T16:59:41.551Z,10.70
2023-03-05T17:02:08.295Z,10.05
2023-03-05T17:04:38.420Z,9.97
2023-03-05T17:07:05.589Z,10.18
2023-03-05T17:09:32.216Z,9.88
2023-03-05T17:14:54.226Z,10.30
2023-03-05T17:17:20.833Z,10.37
2023-03-05T17:19:48.110Z,10.42
2023-03-05T17:22:16.256Z,10.08
2023-03-05T17:24:42.956Z,10.37
2023-03-05T17:27:10.410Z,10.44
2023-03-05T17:29:37.096Z,10.44
2023-03-05T17:32:03.939Z,10.45
2023-03-05T17:34:36.320Z,10.50
2023-03-05T17:37:06.192Z,10.36
2023-03-05T17:39:33.506Z,10.30
2023-03-05T17:42:00.465Z,10.27
2023-03-05T17:44:27.106Z,10.24
2023-03-05T17:46:53.673Z,10.18
2023-03-05T17:49:20.288Z,10.03
2023-03-05T17:51:47.054Z,10.11
2023-03-05T17:54:13.790Z,10.06
2023-03-05T17:56:40.348Z,9.93
2023-03-05T17:59:06.972Z,9.91
2023-03-05T18:01:34.985Z,9.87
2023-03-05T18:04:01.820Z,9.80
2023-03-05T18:06:29.131Z,9.85
2023-03-05T18:08:55.679Z,9.82
2023-03-05T18:11:22.429Z,9.86
2023-03-05T18:13:52.227Z,9.96
2023-03-05T18:16:18.953Z,9.84
2023-03-05T18:18:45.692Z,9.83
2023-03-05T18:21:12.260Z,9.83
2023-03-05T18:23:38.838Z,9.75
2023-03-05T18:26:05.498Z,9.72
2023-03-05T18:28:32.276Z,9.78
2023-03-05T18:30:58.915Z,9.88
2023-03-05T18:33:25.939Z,9.70
2023-03-05T18:35:53.334Z,9.78
2023-03-05T18:38:21.628Z,9.77
2023-03-05T18:40:51.251Z,9.79
2023-03-05T18:43:20.668Z,9.69
2023-03-05T18:45:49.227Z,9.76
2023-03-05T18:48:15.892Z,9.74
2023-03-05T18:50:43.030Z,9.73
2023-03-05T18:53:13.071Z,9.67
2023-03-05T18:55:42.771Z,9.73
2023-03-05T18:58:10.115Z,9.61
2023-03-05T19:00:36.735Z,9.59
2023-03-05T19:03:03.634Z,9.56
2023-03-05T19:05:30.686Z,9.55
2023-03-05T19:07:57.337Z,9.60
2023-03-05T19:10:24.166Z,9.59
2023-03-05T19:13:08.107Z,9.70
2023-03-05T19:15:34.691Z,9.60
2023-03-05T19:18:01.324Z,9.64
2023-03-05T19:20:28.035Z,9.55
2023-03-05T19:22:55.786Z,9.46
2023-03-05T19:25:23.077Z,9.50
2023-03-05T19:27:49.653Z,9.56
2023-03-05T19:30:16.748Z,9.50
2023-03-05T19:32:43.577Z,9.59
2023-03-05T19:35:13.980Z,9.56
2023-03-05T19:37:40.508Z,9.57
2023-03-05T19:40:07.788Z,9.49
2023-03-05T19:42:36.210Z,9.46
2023-03-05T19:45:02.972Z,9.41
2023-03-05T19:47:29.668Z,9.29
2023-03-05T19:49:56.257Z,9.37
2023-03-05T19:52:23.896Z,9.43
2023-03-05T19:54:51.419Z,9.48
2023-03-05T19:57:17.951Z,9.49
2023-03-05T19:59:46.153Z,9.49
2023-03-05T20:02:14.513Z,9.30
2023-03-05T20:04:41.076Z,9.27
2023-03-05T20:07:07.618Z,9.29
2023-03-05T20:09:34.271Z,9.35
2023-03-05T20:12:04.672Z,9.39
2023-03-05T20:14:31.474Z,9.27
2023-03-05T20:16:58.087Z,9.03
2023-03-05T20:19:24.980Z,9.21
2023-03-05T20:21:51.586Z,8.57
2023-03-05T20:24:19.958Z,8.55
2023-03-05T20:26:47.553Z,8.11
2023-03-05T20:29:17.629Z,7.98
2023-03-05T20:31:47.260Z,7.91
2023-03-05T20:34:17.144Z,8.01
2023-03-05T20:36:48.108Z,8.07
2023-03-05T20:39:22.859Z,8.13
2023-03-05T20:41:52.046Z,8.09
2023-03-05T20:44:21.691Z,8.15
2023-03-05T20:47:16.346Z,8.05
2023-03-05T20:49:43.798Z,8.05
2023-03-05T20:52:11.450Z,7.92
2023-03-05T20:54:38.306Z,8.18
2023-03-05T20:57:07.535Z,8.24
2023-03-05T20:59:34.111Z,8.15
2023-03-05T21:02:01.816Z,8.08
2023-03-05T21:04:28.414Z,8.19
2023-03-05T21:06:55.054Z,8.16
2023-03-05T21:09:22.867Z,8.26
2023-03-05T21:11:49.520Z,8.18
2023-03-05T21:14:16.075Z,8.24
2023-03-05T21:16:42.829Z,8.32
2023-03-05T21:19:09.469Z,8.26
2023-03-05T21:21:35.987Z,8.40
2023-03-05T21:24:02.582Z,8.53
2023-03-05T21:26:29.168Z,8.74
2023-03-05T21:28:56.041Z,8.57
2023-03-05T21:31:23.279Z,8.53
2023-03-05T21:33:50.055Z,8.84
2023-03-05T21:36:18.942Z,8.70
2023-03-05T21:38:49.912Z,8.94
2023-03-05T21:41:18.316Z,9.15
2023-03-05T21:43:45.240Z,9.23
2023-03-05T21:46:12.223Z,9.14
2023-03-05T21:48:38.985Z,9.28
2023-03-05T21:52:04.563Z,9.29
2023-03-05T21:54:31.195Z,8.70
2023-03-05T21:56:57.818Z,9.11
2023-03-05T21:59:24.365Z,9.24
2023-03-05T22:01:52.553Z,9.27
2023-03-05T22:04:19.273Z,9.10
2023-03-05T22:06:45.826Z,9.01
2023-03-05T22:09:12.515Z,9.12
2023-03-05T22:11:42.636Z,9.19
2023-03-05T22:14:10.123Z,9.17
2023-03-05T22:16:37.571Z,9.13
2023-03-05T22:19:05.478Z,9.10
2023-03-05T22:21:32.295Z,9.10
2023-03-05T22:23:59.125Z,9.05
2023-03-05T22:26:32.783Z,8.87
2023-03-05T22:28:59.396Z,8.59
2023-03-05T22:31:27.626Z,8.92
2023-03-05T22:33:54.417Z,8.91
2023-03-05T22:36:21.302Z,8.96
2023-03-05T22:38:47.937Z,9.11
2023-03-05T22:41:16.782Z,8.96
2023-03-05T22:43:43.420Z,8.99
2023-03-05T22:46:14.449Z,8.97
2023-03-05T22:48:42.815Z,8.95
2023-03-05T22:51:15.311Z,8.84
2023-03-05T22:53:43.939Z,8.68
2023-03-05T22:56:15.761Z,8.97
2023-03-05T22:58:42.727Z,8.92
2023-03-05T23:01:17.266Z,8.52
2023-03-05T23:04:40.093Z,8.85
2023-03-05T23:07:06.834Z,8.67
2023-03-05T23:09:33.406Z,8.86
2023-03-05T23:12:00.006Z,8.87
2023-03-05T23:14:26.585Z,8.42
2023-03-05T23:16:53.146Z,8.61
2023-03-05T23:19:19.803Z,8.67
2023-03-05T23:21:46.331Z,8.57
2023-03-05T23:24:13.057Z,8.43
2023-03-05T23:26:39.645Z,8.56
2023-03-05T23:29:06.212Z,8.43
2023-03-05T23:31:32.855Z,7.96
2023-03-05T23:33:59.459Z,7.63
2023-03-05T23:36:26.243Z,7.41
2023-03-05T23:38:57.512Z,7.56
2023-03-05T23:41:24.066Z,8.12
2023-03-05T23:43:50.667Z,8.20
2023-03-05T23:46:17.383Z,8.46
2023-03-05T23:48:44.090Z,8.50
2023-03-05T23:51:11.356Z,8.52
2023-03-05T23:53:37.967Z,8.62
2023-03-05T23:56:10.176Z,8.50
2023-03-05T23:58:37.500Z,8.44
